Time;durP1;ratioP1;P1;durP2;ratioP2;P2;SDS_P1;SDS_P2;PMS_P1;PMS_P2;Temp;Humidity;BMP_temperature;BMP_pressure;BME280_temperature;BME280_humidity;BME280_pressure;Samples;Min_cycle;Max_cycle;Signal;HPM_P1;HPM_P2
2023/03/18 00:00:08;;;;;;;7.55;3.45;;;10.80;99.90;;;;;;5047836;28;20084;-40
2023/03/18 00:02:35;;;;;;;7.85;3.53;;;10.80;99.90;;;;;;5048854;28;20041;-40
2023/03/18 00:05:02;;;;;;;7.50;3.78;;;10.80;99.90;;;;;;5048601;28;20045;-40
2023/03/18 00:07:27;;;;;;;7.93;4.13;;;10.80;99.90;;;;;;5030431;28;20056;-41
2023/03/18 00:09:53;;;;;;;8.43;3.85;;;10.90;99.90;;;;;;5048326;28;20048;-40
2023/03/18 00:12:19;;;;;;;7.38;3.17;;;10.70;99.90;;;;;;5047825;28;20045;-41
2023/03/18 00:14:45;;;;;;;5.18;3.03;;;10.80;99.90;;;;;;5048036;28;20041;-40
2023/03/18 00:17:11;;;;;;;7.90;4.07;;;11.10;99.90;;;;;;5013728;28;20048;-40
2023/03/18 00:19:37;;;;;;;6.35;3.63;;;11.10;99.90;;;;;;5047227;28;20040;-40
2023/03/18 00:22:03;;;;;;;6.15;3.40;;;10.60;99.90;;;;;;5048731;28;20060;-40
2023/03/18 00:24:29;;;;;;;6.55;3.53;;;10.70;99.90;;;;;;5049301;28;20055;-40
2023/03/18 00:26:56;;;;;;;7.22;3.72;;;10.90;99.90;;;;;;5049359;28;20049;-40
2023/03/18 00:29:23;;;;;;;6.70;3.63;;;10.70;99.90;;;;;;5030618;28;20116;-41
2023/03/18 00:31:50;;;;;;;7.50;3.80;;;10.60;99.90;;;;;;5049193;28;20107;-40
2023/03/18 00:34:16;;;;;;;6.43;3.83;;;10.60;99.90;;;;;;5048981;28;20091;-41
2023/03/18 00:36:44;;;;;;;8.40;3.30;;;11.10;99.90;;;;;;5048590;28;20044;-40
2023/03/18 00:39:12;;;;;;;5.88;3.63;;;10.60;99.90;;;;;;5048569;28;20088;-41
2023/03/18 00:41:38;;;;;;;5.90;3.88;;;10.90;99.90;;;;;;5048936;28;20041;-40
2023/03/18 00:44:04;;;;;;;7.75;3.90;;;10.60;99.90;;;;;;5047964;28;20052;-40
2023/03/18 00:46:33;;;;;;;7.72;3.83;;;10.70;99.90;;;;;;5048927;28;20391;-40
2023/03/18 00:49:04;;;;;;;7.47;3.92;;;10.60;99.90;;;;;;5048947;28;20491;-40
2023/03/18 00:51:31;;;;;;;8.98;4.57;;;10.90;99.90;;;;;;5048713;28;20064;-40
2023/03/18 00:53:59;;;;;;;7.93;3.67;;;12.50;99.90;;;;;;5048697;28;20740;-40
2023/03/18 00:56:27;;;;;;;8.45;5.03;;;11.10;99.90;;;;;;5047946;28;20051;-40
2023/03/18 00:58:53;;;;;;;12.10;5.53;;;10.60;99.90;;;;;;5047640;28;20552;-40
2023/03/18 01:01:20;;;;;;;8.65;4.95;;;10.60;99.90;;;;;;5047793;28;20437;-40
2023/03/18 01:03:48;;;;;;;10.63;5.30;;;10.60;99.90;;;;;;5048346;28;20152;-41
2023/03/18 01:06:21;;;;;;;9.68;5.72;;;10.60;99.90;;;;;;5047927;28;20045;-41
2023/03/18 01:08:47;;;;;;;13.35;6.35;;;10.60;99.90;;;;;;5048215;28;20038;-40
2023/03/18 01:11:13;;;;;;;9.95;5.68;;;10.50;99.90;;;;;;5047799;28;20049;-40
2023/03/18 01:13:39;;;;;;;11.90;6.25;;;11.00;99.90;;;;;;5047645;28;20087;-42
2023/03/18 01:16:06;;;;;;;12.75;6.28;;;10.80;99.90;;;;;;5047581;28;20119;-39
2023/03/18 01:18:33;;;;;;;11.23;6.40;;;10.60;99.90;;;;;;5029946;28;20045;-41
2023/03/18 01:20:59;;;;;;;11.27;6.25;;;11.20;99.90;;;;;;5046106;28;20132;-40
2023/03/18 01:23:26;;;;;;;10.90;6.80;;;10.60;99.90;;;;;;5047648;28;20052;-40
2023/03/18 01:25:52;;;;;;;10.55;6.80;;;10.60;99.90;;;;;;5047559;28;20766;-40
2023/03/18 01:28:20;;;;;;;13.70;7.82;;;10.70;99.90;;;;;;5047153;28;20045;-40
2023/03/18 01:30:46;;;;;;;13.40;7.82;;;11.00;99.90;;;;;;5046716;28;20045;-40
2023/03/18 01:33:12;;;;;;;12.38;7.63;;;10.30;99.90;;;;;;5047038;28;20124;-41
2023/03/18 01:35:38;;;;;;;10.00;7.30;;;10.00;99.90;;;;;;5047290;28;20155;-41
2023/03/18 01:38:04;;;;;;;13.15;7.95;;;10.00;99.90;;;;;;5047399;28;20171;-41
2023/03/18 01:40:35;;;;;;;13.88;7.30;;;10.30;99.90;;;;;;5047269;28;20033;-40
2023/03/18 01:43:16;;;;;;;15.30;8.15;;;10.10;99.90;;;;;;5047044;28;20045;-40
2023/03/18 01:45:48;;;;;;;13.50;8.50;;;9.50;99.90;;;;;;5047711;28;20037;-41
2023/03/18 01:48:17;;;;;;;11.43;8.57;;;9.80;99.90;;;;;;5047241;28;20047;-40
2023/03/18 01:50:46;;;;;;;10.90;7.75;;;9.70;99.90;;;;;;5047281;28;20061;-41
2023/03/18 01:53:14;;;;;;;13.32;8.95;;;9.50;99.90;;;;;;5047299;28;20537;-40
2023/03/18 01:55:41;;;;;;;12.23;8.85;;;9.50;99.90;;;;;;5047307;28;20061;-40
2023/03/18 01:58:21;;;;;;;13.15;8.40;;;9.40;99.90;;;;;;5039375;28;20171;-40
2023/03/18 02:00:59;;;;;;;15.65;9.00;;;8.90;99.90;;;;;;5047501;28;20044;-40
2023/03/18 02:03:26;;;;;;;14.52;9.45;;;8.90;99.90;;;;;;5046896;28;20071;-40
2023/03/18 02:05:52;;;;;;;13.88;9.40;;;9.20;99.90;;;;;;5047088;28;20128;-40
2023/03/18 02:08:18;;;;;;;16.10;10.77;;;8.90;99.90;;;;;;5046004;28;20037;-41
2023/03/18 02:10:45;;;;;;;17.88;10.80;;;8.80;99.90;;;;;;5046926;28;20548;-41
2023/03/18 02:13:13;;;;;;;16.77;10.23;;;9.00;99.90;;;;;;5046811;28;20032;-40
2023/03/18 02:15:54;;;;;;;16.58;10.88;;;8.90;99.90;;;;;;5029107;28;20056;-40
2023/03/18 02:18:27;;;;;;;20.13;11.70;;;9.00;99.90;;;;;;5046919;28;20045;-40
2023/03/18 02:21:13;;;;;;;17.98;11.93;;;8.90;99.90;;;;;;5046867;28;20045;-40
2023/03/18 02:23:44;;;;;;;20.58;12.65;;;8.50;99.90;;;;;;5046309;28;20056;-41
2023/03/18 02:26:21;;;;;;;23.73;14.20;;;8.40;99.90;;;;;;5046583;28;20128;-41
2023/03/18 02:28:50;;;;;;;18.50;13.38;;;8.70;99.90;;;;;;5046527;28;20441;-41
2023/03/18 02:31:17;;;;;;;23.25;14.07;;;8.70;99.90;;;;;;5046150;28;20037;-40
2023/03/18 02:33:45;;;;;;;21.77;14.57;;;8.80;99.90;;;;;;5046083;28;20075;-40
2023/03/18 02:36:25;;;;;;;20.40;14.50;;;8.60;99.90;;;;;;5045954;28;20040;-41
2023/03/18 02:38:51;;;;;;;23.40;14.65;;;8.90;99.90;;;;;;5045377;28;20091;-40
2023/03/18 02:41:20;;;;;;;19.95;15.10;;;8.90;99.90;;;;;;5045979;28;20045;-40
2023/03/18 02:43:47;;;;;;;23.83;14.93;;;8.90;99.90;;;;;;5045737;28;20547;-40
2023/03/18 02:46:32;;;;;;;21.95;15.52;;;9.00;99.90;;;;;;5046401;28;20045;-41
2023/03/18 02:49:00;;;;;;;21.98;16.00;;;9.20;99.90;;;;;;5046280;28;20037;-40
2023/03/18 02:51:27;;;;;;;23.50;17.45;;;8.90;99.90;;;;;;5044968;28;20063;-41
2023/03/18 02:53:57;;;;;;;28.52;17.02;;;9.20;99.90;;;;;;5045462;28;20132;-40
2023/03/18 02:56:23;;;;;;;25.75;15.55;;;9.20;99.90;;;;;;5045077;28;20056;-40
2023/03/18 02:58:50;;;;;;;24.85;16.58;;;9.20;99.90;;;;;;5045310;28;20486;-42
2023/03/18 03:01:16;;;;;;;22.52;15.73;;;9.30;99.90;;;;;;5046110;28;20124;-42
2023/03/18 03:03:42;;;;;;;20.88;15.18;;;9.30;99.90;;;;;;5045924;28;20124;-41
2023/03/18 03:06:09;;;;;;;22.98;15.52;;;9.30;99.90;;;;;;5048148;28;20464;-41
2023/03/18 03:08:36;;;;;;;21.33;16.65;;;9.30;99.90;;;;;;5052522;28;20043;-41
2023/03/18 03:11:02;;;;;;;24.38;16.85;;;9.40;99.90;;;;;;5052535;28;20187;-41
2023/03/18 03:13:28;;;;;;;21.20;15.32;;;9.10;99.90;;;;;;5052275;28;20051;-41
2023/03/18 03:15:54;;;;;;;25.13;17.35;;;9.10;99.90;;;;;;5052568;28;20041;-41
2023/03/18 03:18:21;;;;;;;25.77;17.20;;;9.40;99.90;;;;;;5052654;28;20120;-41
2023/03/18 03:20:48;;;;;;;22.90;17.33;;;9.30;99.90;;;;;;5052768;28;20103;-41
2023/03/18 03:23:15;;;;;;;25.65;17.42;;;9.30;99.90;;;;;;5052219;28;20045;-41
2023/03/18 03:25:41;;;;;;;24.83;17.05;;;9.20;99.90;;;;;;5052992;28;20043;-41
2023/03/18 03:28:07;;;;;;;25.13;18.05;;;9.20;99.90;;;;;;5053123;28;20136;-42
2023/03/18 03:30:34;;;;;;;26.67;16.75;;;9.00;99.90;;;;;;5052924;28;20123;-43
2023/03/18 03:33:01;;;;;;;25.55;17.05;;;9.00;99.90;;;;;;5052994;28;20083;-41
2023/03/18 03:35:27;;;;;;;26.83;17.95;;;9.30;99.90;;;;;;5052841;28;20059;-41
2023/03/18 03:37:53;;;;;;;22.10;16.65;;;9.40;99.90;;;;;;5052948;28;20047;-41
2023/03/18 03:40:19;;;;;;;26.52;18.17;;;9.10;99.90;;;;;;5052804;28;20041;-41
2023/03/18 03:42:46;;;;;;;24.35;17.38;;;9.10;99.90;;;;;;5052243;28;20943;-41
2023/03/18 03:45:13;;;;;;;26.55;18.13;;;9.10;99.90;;;;;;5052935;28;20943;-41
2023/03/18 03:47:41;;;;;;;28.70;18.58;;;9.30;99.90;;;;;;5053250;28;20753;-41
2023/03/18 03:50:10;;;;;;;27.25;19.70;;;9.20;99.90;;;;;;5052783;28;20490;-42
2023/03/18 03:52:36;;;;;;;27.58;19.48;;;8.60;99.90;;;;;;5051866;28;20088;-41
2023/03/18 03:55:03;;;;;;;31.67;20.17;;;9.10;99.90;;;;;;5052729;28;20386;-41
2023/03/18 03:57:29;;;;;;;30.83;20.20;;;8.40;99.90;;;;;;5052310;28;20487;-41
2023/03/18 03:59:55;;;;;;;28.25;19.55;;;8.50;99.90;;;;;;5052561;28;20045;-41
2023/03/18 04:02:23;;;;;;;28.42;21.13;;;8.50;99.90;;;;;;5052258;28;20746;-42
2023/03/18 04:04:49;;;;;;;31.25;20.42;;;8.70;99.90;;;;;;5051839;28;20499;-41
2023/03/18 04:07:15;;;;;;;31.27;21.52;;;8.20;99.90;;;;;;5052121;28;20175;-41
2023/03/18 04:09:41;;;;;;;29.70;22.05;;;8.10;99.90;;;;;;5052167;28;20036;-41
2023/03/18 04:12:08;;;;;;;31.02;22.05;;;8.40;99.90;;;;;;5052406;28;20178;-41
2023/03/18 04:14:35;;;;;;;29.30;21.33;;;7.80;99.90;;;;;;5052506;28;20080;-42
2023/03/18 04:17:01;;;;;;;29.83;21.55;;;7.90;99.90;;;;;;5052254;28;20044;-41
2023/03/18 04:19:27;;;;;;;32.35;21.67;;;8.70;99.90;;;;;;5048398;28;20060;-41
2023/03/18 04:21:53;;;;;;;32.35;22.48;;;7.70;99.90;;;;;;5049056;28;20091;-40
2023/03/18 04:24:20;;;;;;;32.08;23.85;;;8.00;99.90;;;;;;5049073;28;20129;-41
2023/03/18 04:26:46;;;;;;;35.83;23.80;;;8.10;99.90;;;;;;5048521;28;20052;-42
2023/03/18 04:29:12;;;;;;;35.78;23.40;;;8.00;99.90;;;;;;5048462;28;20497;-41
2023/03/18 04:31:37;;;;;;;32.10;22.75;;;8.70;99.90;;;;;;5048573;28;20091;-41
2023/03/18 04:34:03;;;;;;;35.85;23.23;;;8.80;99.90;;;;;;5048735;28;20064;-41
2023/03/18 04:36:29;;;;;;;33.15;23.15;;;8.50;99.90;;;;;;5049076;28;20765;-40
2023/03/18 04:38:55;;;;;;;30.38;21.23;;;8.90;99.90;;;;;;5048563;28;20080;-41
2023/03/18 04:41:22;;;;;;;35.88;21.65;;;8.00;99.90;;;;;;5048710;28;20049;-41
2023/03/18 04:43:48;;;;;;;31.25;20.90;;;8.00;99.90;;;;;;5048177;28;20039;-41
2023/03/18 04:46:14;;;;;;;30.65;21.35;;;8.70;99.90;;;;;;5049021;28;20076;-40
2023/03/18 04:48:40;;;;;;;32.38;21.42;;;7.90;99.90;;;;;;5030435;28;20049;-41
2023/03/18 04:51:08;;;;;;;31.45;22.35;;;8.20;99.90;;;;;;5048593;28;20063;-41
2023/03/18 04:53:34;;;;;;;31.27;22.00;;;9.40;99.90;;;;;;5047201;28;20061;-41
2023/03/18 04:56:01;;;;;;;31.15;21.50;;;8.60;99.90;;;;;;5048818;28;20052;-41
2023/03/18 04:58:26;;;;;;;33.10;21.70;;;8.30;99.90;;;;;;5048696;28;20119;-41
2023/03/18 05:00:52;;;;;;;30.83;21.80;;;8.00;99.90;;;;;;5048383;28;20040;-41
2023/03/18 05:03:18;;;;;;;29.60;21.75;;;8.90;99.90;;;;;;5048392;28;20044;-41
2023/03/18 05:05:44;;;;;;;28.27;20.33;;;8.30;99.90;;;;;;5048101;28;20041;-41
2023/03/18 05:08:10;;;;;;;24.52;19.95;;;8.80;99.90;;;;;;5048236;28;20094;-41
2023/03/18 05:10:36;;;;;;;28.27;21.42;;;8.40;99.90;;;;;;5048203;28;20045;-41
2023/03/18 05:13:02;;;;;;;29.08;21.00;;;8.50;99.90;;;;;;5047929;28;20053;-41
2023/03/18 05:15:28;;;;;;;26.23;19.85;;;8.80;99.90;;;;;;5047900;28;20755;-40
2023/03/18 05:17:54;;;;;;;27.55;20.15;;;8.50;99.90;;;;;;5047400;28;20045;-41
2023/03/18 05:20:20;;;;;;;27.85;19.92;;;8.60;99.90;;;;;;5048022;28;20123;-41
2023/03/18 05:22:46;;;;;;;28.90;21.55;;;9.00;99.90;;;;;;5047748;28;20041;-41
2023/03/18 05:25:12;;;;;;;30.73;22.52;;;8.60;99.90;;;;;;5048347;28;20064;-41
2023/03/18 05:27:39;;;;;;;29.33;22.13;;;8.90;99.90;;;;;;5048489;28;20049;-41
2023/03/18 05:30:06;;;;;;;31.35;22.70;;;8.90;99.90;;;;;;5047526;28;20083;-40
2023/03/18 05:32:32;;;;;;;28.48;21.85;;;8.40;99.90;;;;;;5047847;28;20665;-41
2023/03/18 05:34:57;;;;;;;30.73;21.77;;;8.50;99.90;;;;;;5047602;28;20059;-41
2023/03/18 05:37:23;;;;;;;26.27;22.35;;;9.00;99.90;;;;;;5047769;28;20044;-41
2023/03/18 05:39:49;;;;;;;29.85;22.42;;;8.40;99.90;;;;;;5047608;28;20032;-41
2023/03/18 05:42:15;;;;;;;29.77;23.10;;;8.50;99.90;;;;;;5047751;28;20545;-41
2023/03/18 05:44:41;;;;;;;33.20;23.33;;;9.20;99.90;;;;;;5047466;28;20045;-41
2023/03/18 05:47:08;;;;;;;32.42;24.52;;;8.70;99.90;;;;;;5046896;28;20055;-41
2023/03/18 05:49:34;;;;;;;34.17;23.48;;;8.20;99.90;;;;;;5047005;28;20534;-41
2023/03/18 05:52:00;;;;;;;34.10;24.13;;;8.50;99.90;;;;;;5045987;28;20061;-41
2023/03/18 05:54:25;;;;;;;31.23;23.45;;;8.50;99.90;;;;;;5045829;28;20045;-41
2023/03/18 05:56:51;;;;;;;33.38;25.00;;;8.70;99.90;;;;;;5045409;28;20044;-41
2023/03/18 05:59:18;;;;;;;30.92;23.70;;;8.30;99.90;;;;;;5046003;28;20605;-41
2023/03/18 06:01:44;;;;;;;36.95;24.48;;;8.60;99.90;;;;;;5045901;28;20411;-41
2023/03/18 06:04:10;;;;;;;32.00;24.40;;;8.50;99.90;;;;;;5046175;28;20048;-41
2023/03/18 06:06:39;;;;;;;33.55;23.75;;;8.80;99.90;;;;;;5047174;28;20048;-41
2023/03/18 06:09:06;;;;;;;28.48;23.25;;;8.60;99.90;;;;;;5047116;28;20037;-41
2023/03/18 06:11:32;;;;;;;32.25;22.15;;;8.70;99.90;;;;;;5046731;28;20080;-41
2023/03/18 06:13:58;;;;;;;29.73;21.27;;;8.90;99.90;;;;;;5046638;28;20045;-41
2023/03/18 06:16:24;;;;;;;28.83;21.52;;;8.80;99.90;;;;;;5046722;28;20055;-41
2023/03/18 06:18:50;;;;;;;26.08;20.80;;;8.80;99.90;;;;;;5046533;28;20053;-41
2023/03/18 06:21:16;;;;;;;27.75;21.85;;;8.80;99.90;;;;;;5046238;28;20045;-40
2023/03/18 06:23:43;;;;;;;29.05;21.45;;;8.70;99.90;;;;;;5046746;28;20478;-41
2023/03/18 06:26:09;;;;;;;28.10;20.27;;;8.90;99.90;;;;;;5046257;28;20045;-41
2023/03/18 06:28:35;;;;;;;27.63;21.63;;;8.90;99.90;;;;;;5045718;28;20637;-41
2023/03/18 06:31:01;;;;;;;24.73;20.17;;;8.90;99.90;;;;;;5046062;28;20040;-41
2023/03/18 06:33:28;;;;;;;30.80;21.85;;;8.90;99.90;;;;;;5046596;28;20384;-41
2023/03/18 06:35:54;;;;;;;26.45;20.25;;;9.30;99.90;;;;;;5028582;28;20099;-41
2023/03/18 06:38:20;;;;;;;35.53;21.77;;;9.10;99.90;;;;;;5029159;28;20051;-41
2023/03/18 06:40:46;;;;;;;29.95;22.83;;;9.50;99.90;;;;;;5046385;28;20040;-41
2023/03/18 06:43:12;;;;;;;23.50;19.77;;;8.90;99.90;;;;;;5046895;28;20170;-41
2023/03/18 06:45:39;;;;;;;25.55;20.33;;;9.10;99.90;;;;;;5046993;28;20055;-41
2023/03/18 06:48:07;;;;;;;28.83;21.35;;;9.60;99.90;;;;;;5046648;28;20163;-41
2023/03/18 06:50:33;;;;;;;27.88;21.35;;;9.10;99.90;;;;;;5046374;28;20071;-42
2023/03/18 06:52:58;;;;;;;26.23;20.35;;;9.40;99.90;;;;;;5045919;28;20045;-41
2023/03/18 06:55:25;;;;;;;26.45;21.25;;;9.40;99.90;;;;;;5045849;28;20075;-41
2023/03/18 06:57:51;;;;;;;26.98;19.70;;;9.50;99.90;;;;;;5045786;28;20098;-41
2023/03/18 07:00:17;;;;;;;27.90;20.67;;;9.90;99.90;;;;;;5046408;28;20037;-41
2023/03/18 07:02:44;;;;;;;32.13;21.13;;;9.70;99.90;;;;;;5046473;28;20183;-41
2023/03/18 07:05:11;;;;;;;26.23;19.58;;;9.70;99.90;;;;;;5046063;28;20506;-42
2023/03/18 07:07:38;;;;;;;26.38;20.50;;;9.80;99.90;;;;;;5045902;28;20041;-41
2023/03/18 07:10:06;;;;;;;25.10;18.13;;;9.90;99.90;;;;;;5045976;28;20045;-41
2023/03/18 07:12:32;;;;;;;23.13;18.98;;;9.90;99.90;;;;;;5046447;28;20446;-41
2023/03/18 07:14:58;;;;;;;24.83;18.98;;;9.90;99.90;;;;;;5046400;28;20044;-41
2023/03/18 07:17:24;;;;;;;24.63;18.98;;;9.90;99.90;;;;;;5027632;28;20075;-42
2023/03/18 07:19:50;;;;;;;25.92;19.08;;;10.10;99.90;;;;;;5045996;28;20048;-41
2023/03/18 07:22:17;;;;;;;26.58;19.13;;;10.70;99.90;;;;;;5045633;28;20595;-41
2023/03/18 07:24:44;;;;;;;21.52;18.17;;;10.70;99.90;;;;;;5045831;28;20405;-41
2023/03/18 07:27:12;;;;;;;22.63;18.25;;;11.50;99.90;;;;;;5044922;28;20076;-41
2023/03/18 07:29:38;;;;;;;23.08;17.40;;;11.60;99.90;;;;;;5027130;28;20045;-41
2023/03/18 07:32:04;;;;;;;21.50;17.10;;;11.80;99.90;;;;;;5045201;28;20144;-41
2023/03/18 07:34:30;;;;;;;23.48;16.65;;;11.40;99.90;;;;;;5045973;28;20049;-41
2023/03/18 07:36:56;;;;;;;22.08;16.60;;;11.40;99.90;;;;;;5045748;28;20064;-41
2023/03/18 07:39:22;;;;;;;23.60;16.15;;;11.40;99.90;;;;;;5045529;28;20048;-41
2023/03/18 07:41:48;;;;;;;20.73;16.25;;;11.80;99.90;;;;;;5045346;28;20052;-41
2023/03/18 07:44:14;;;;;;;21.75;15.63;;;11.80;99.90;;;;;;5045740;28;20045;-41
2023/03/18 07:46:40;;;;;;;21.25;15.23;;;11.20;99.90;;;;;;5045328;28;20041;-41
2023/03/18 07:49:06;;;;;;;22.58;16.42;;;11.50;99.90;;;;;;5027081;28;20121;-41
2023/03/18 07:51:31;;;;;;;21.15;15.38;;;11.10;99.90;;;;;;5045157;28;20147;-41
2023/03/18 07:53:57;;;;;;;22.73;16.52;;;11.50;99.90;;;;;;5048808;28;20100;-41
2023/03/18 07:56:24;;;;;;;19.58;14.93;;;11.40;99.90;;;;;;5048324;28;20041;-41
2023/03/18 07:58:50;;;;;;;25.25;15.13;;;11.00;99.90;;;;;;5049168;28;20465;-41
2023/03/18 08:01:18;;;;;;;21.13;15.10;;;11.00;99.90;;;;;;5048959;28;20049;-41
2023/03/18 08:03:45;;;;;;;24.52;16.23;;;10.90;99.90;;;;;;5049160;28;20090;-41
2023/03/18 08:06:12;;;;;;;22.60;15.30;;;11.30;99.90;;;;;;5048850;28;20047;-41
2023/03/18 08:08:39;;;;;;;22.20;14.32;;;10.60;99.90;;;;;;5049272;28;20079;-41
2023/03/18 08:11:05;;;;;;;28.25;14.98;;;11.10;99.90;;;;;;5048684;28;20059;-42
2023/03/18 08:13:31;;;;;;;21.40;15.75;;;10.90;99.90;;;;;;5048870;28;20037;-41
2023/03/18 08:15:57;;;;;;;18.92;14.40;;;11.10;99.90;;;;;;5048898;28;20044;-42
2023/03/18 08:18:23;;;;;;;23.98;15.98;;;10.70;99.90;;;;;;5049155;28;20045;-41
2023/03/18 08:20:48;;;;;;;20.15;15.60;;;10.70;99.90;;;;;;5049111;28;20037;-41
2023/03/18 08:23:14;;;;;;;21.52;15.20;;;10.70;99.90;;;;;;5048939;28;20048;-41
2023/03/18 08:25:41;;;;;;;22.05;16.67;;;10.80;99.90;;;;;;5049327;28;20497;-42
2023/03/18 08:28:07;;;;;;;20.65;16.40;;;11.00;99.90;;;;;;5049054;28;20548;-41
2023/03/18 08:30:38;;;;;;;25.42;16.77;;;11.30;99.90;;;;;;5048696;28;20049;-41
2023/03/18 08:33:04;;;;;;;23.95;16.63;;;11.20;99.90;;;;;;5048753;28;20055;-41
2023/03/18 08:35:30;;;;;;;22.92;17.58;;;11.00;99.90;;;;;;5048288;28;20053;-41
2023/03/18 08:37:55;;;;;;;21.83;16.85;;;11.10;99.90;;;;;;5048224;28;20041;-41
2023/03/18 08:40:21;;;;;;;25.20;18.05;;;11.10;99.90;;;;;;5048525;28;20045;-41
2023/03/18 08:42:47;;;;;;;24.42;18.42;;;11.50;99.90;;;;;;5048558;28;20754;-41
2023/03/18 08:45:14;;;;;;;24.38;19.00;;;11.70;99.90;;;;;;5048802;28;20076;-41
2023/03/18 08:47:40;;;;;;;24.45;18.55;;;11.10;99.90;;;;;;5048150;28;20039;-41
2023/03/18 08:50:07;;;;;;;27.67;19.13;;;11.20;99.90;;;;;;5047968;28;20067;-41
2023/03/18 08:52:33;;;;;;;25.35;18.90;;;11.20;99.90;;;;;;5029394;28;20831;-41
2023/03/18 08:54:59;;;;;;;23.52;18.08;;;11.70;99.90;;;;;;5047507;28;20048;-41
2023/03/18 08:57:26;;;;;;;28.10;19.15;;;11.20;99.90;;;;;;5046812;28;20051;-42
2023/03/18 08:59:52;;;;;;;24.42;18.23;;;11.30;99.90;;;;;;5047168;28;20052;-41
2023/03/18 09:02:18;;;;;;;23.27;18.00;;;11.30;99.90;;;;;;5046606;28;20041;-41
2023/03/18 09:04:44;;;;;;;22.42;17.13;;;11.40;99.90;;;;;;5047309;28;20048;-41
2023/03/18 09:07:12;;;;;;;24.48;17.42;;;11.80;99.90;;;;;;5047839;28;20047;-41
2023/03/18 09:09:37;;;;;;;24.67;17.20;;;11.60;99.90;;;;;;5029970;28;20485;-41
2023/03/18 09:12:05;;;;;;;21.13;16.70;;;11.60;99.90;;;;;;5047868;28;20072;-41
2023/03/18 09:14:31;;;;;;;25.73;17.33;;;11.80;99.90;;;;;;5047624;28;20049;-41
2023/03/18 09:16:58;;;;;;;25.15;17.80;;;12.20;99.90;;;;;;5029700;28;20784;-41
2023/03/18 09:19:25;;;;;;;26.60;18.45;;;12.50;99.90;;;;;;5047016;28;20161;-41
2023/03/18 09:21:51;;;;;;;21.45;17.38;;;12.60;99.90;;;;;;5046610;28;20044;-42
2023/03/18 09:24:16;;;;;;;23.50;19.27;;;13.10;99.90;;;;;;5028848;28;20107;-41
2023/03/18 09:26:42;;;;;;;28.40;19.67;;;13.70;99.90;;;;;;5045759;28;20045;-42
2023/03/18 09:29:09;;;;;;;23.88;18.58;;;14.10;99.90;;;;;;5047115;28;20091;-42
2023/03/18 09:31:36;;;;;;;24.48;19.20;;;14.40;99.90;;;;;;5047295;28;20380;-41
2023/03/18 09:34:02;;;;;;;25.95;18.85;;;14.70;99.90;;;;;;5047244;28;20049;-41
2023/03/18 09:36:33;;;;;;;24.35;18.73;;;15.00;99.90;;;;;;5046525;28;20041;-43
2023/03/18 09:38:59;;;;;;;23.95;18.95;;;15.30;99.90;;;;;;5046958;28;20040;-43
2023/03/18 09:42:12;;;;;;;23.83;18.42;;;15.70;99.90;;;;;;5046588;28;20099;-41
2023/03/18 09:44:38;;;;;;;21.48;18.38;;;16.20;99.90;;;;;;5022686;28;20669;-41
2023/03/18 09:47:14;;;;;;;20.73;18.52;;;15.90;99.90;;;;;;5046552;28;20114;-42
2023/03/18 09:49:59;;;;;;;23.17;18.45;;;16.80;99.90;;;;;;5028815;28;20056;-43
2023/03/18 09:52:36;;;;;;;21.27;16.23;;;17.40;99.90;;;;;;5046268;28;20274;-41
2023/03/18 09:55:16;;;;;;;20.70;16.73;;;18.40;99.90;;;;;;5046170;28;20562;-42
2023/03/18 09:57:45;;;;;;;16.90;15.10;;;19.80;99.90;;;;;;5046529;28;20072;-42
2023/03/18 10:00:35;;;;;;;20.55;16.42;;;21.10;99.90;;;;;;5046807;28;20116;-42
2023/03/18 10:03:13;;;;;;;20.17;16.02;;;22.00;99.90;;;;;;5028437;28;20525;-43
2023/03/18 10:05:52;;;;;;;19.25;16.08;;;22.50;99.90;;;;;;5046035;28;20116;-42
2023/03/18 10:08:37;;;;;;;18.10;16.20;;;23.20;98.40;;;;;;5046129;28;20033;-42
2023/03/18 10:11:11;;;;;;;18.80;16.30;;;23.70;94.60;;;;;;5046148;28;20041;-42
2023/03/18 10:13:46;;;;;;;19.13;17.10;;;23.70;96.50;;;;;;5045730;28;20776;-43
2023/03/18 10:16:20;;;;;;;20.05;16.90;;;22.90;91.40;;;;;;5043927;28;20463;-43
2023/03/18 10:18:49;;;;;;;19.38;15.05;;;22.10;91.20;;;;;;5021427;28;20072;-44
2023/03/18 10:21:32;;;;;;;17.95;14.27;;;21.20;91.80;;;;;;5042195;28;20044;-42
2023/03/18 10:24:23;;;;;;;17.50;14.82;;;20.40;92.00;;;;;;5041394;28;20044;-45
2023/03/18 10:27:07;;;;;;;20.08;14.57;;;19.80;93.00;;;;;;5041630;28;20109;-42
2023/03/18 10:29:58;;;;;;;20.83;15.02;;;19.10;93.50;;;;;;5041678;28;20045;-43
2023/03/18 10:32:50;;;;;;;17.40;14.88;;;18.50;94.30;;;;;;5041966;28;20164;-45
2023/03/18 10:35:30;;;;;;;18.80;13.95;;;18.70;95.90;;;;;;5024186;28;20056;-44
2023/03/18 10:38:23;;;;;;;19.17;14.65;;;19.00;96.20;;;;;;5041988;28;20124;-46
2023/03/18 10:41:03;;;;;;;17.42;14.82;;;19.10;95.10;;;;;;5044829;28;20360;-46
2023/03/18 10:43:31;;;;;;;15.07;13.05;;;18.80;95.30;;;;;;5047005;28;20052;-46
2023/03/18 10:46:04;;;;;;;17.15;13.40;;;18.50;95.00;;;;;;5034358;28;20052;-48
2023/03/18 10:48:34;;;;;;;17.95;14.50;;;18.20;94.90;;;;;;5079571;28;20048;-45
2023/03/18 10:51:24;;;;;;;16.90;13.82;;;18.00;95.20;;;;;;5084092;28;20056;-45
2023/03/18 10:54:28;;;;;;;16.92;13.48;;;17.90;95.90;;;;;;5082288;28;20052;-45
2023/03/18 10:56:53;;;;;;;17.38;14.20;;;17.90;95.80;;;;;;5083150;28;20130;-45
2023/03/18 10:59:27;;;;;;;15.73;13.95;;;17.70;95.80;;;;;;5085467;28;20122;-45
2023/03/18 11:02:18;;;;;;;17.63;13.95;;;17.70;95.90;;;;;;5083561;28;20114;-45
2023/03/18 11:05:23;;;;;;;17.90;14.13;;;17.60;95.80;;;;;;5083296;28;20046;-46
2023/03/18 11:08:28;;;;;;;17.75;14.52;;;17.60;96.40;;;;;;5020791;28;20295;-44
2023/03/18 11:10:54;;;;;;;20.05;15.57;;;17.70;96.20;;;;;;5013802;28;20084;-43
2023/03/18 11:13:23;;;;;;;22.58;14.48;;;17.30;96.80;;;;;;5038284;28;20084;-41
2023/03/18 11:15:55;;;;;;;19.98;13.95;;;17.00;96.20;;;;;;5040196;28;20088;-40
2023/03/18 11:18:26;;;;;;;14.88;13.07;;;16.80;96.40;;;;;;5034441;28;20097;-44
2023/03/18 11:21:00;;;;;;;20.20;14.47;;;16.50;97.10;;;;;;5024884;28;20064;-40
2023/03/18 11:23:47;;;;;;;16.33;12.73;;;16.40;97.30;;;;;;5040930;28;20049;-40
2023/03/18 11:26:23;;;;;;;14.68;11.65;;;16.30;97.40;;;;;;5040971;28;20079;-40
2023/03/18 11:28:56;;;;;;;11.80;9.35;;;16.30;97.60;;;;;;5044455;28;20080;-42
2023/03/18 11:31:21;;;;;;;10.45;9.23;;;16.20;97.60;;;;;;5043823;28;20503;-41
2023/03/18 11:33:47;;;;;;;13.38;9.18;;;16.00;97.70;;;;;;5042907;28;20044;-40
2023/03/18 11:36:17;;;;;;;13.43;11.45;;;15.90;97.70;;;;;;5043581;28;20066;-42
2023/03/18 11:38:54;;;;;;;14.82;11.27;;;15.90;98.30;;;;;;5043759;28;20041;-42
2023/03/18 11:41:28;;;;;;;14.95;11.88;;;16.10;98.60;;;;;;5059167;28;20151;-45
2023/03/18 11:44:07;;;;;;;12.60;11.02;;;16.10;98.80;;;;;;5065128;28;20442;-45
2023/03/18 11:46:41;;;;;;;14.82;11.13;;;16.10;98.60;;;;;;5066684;28;20147;-43
2023/03/18 11:49:13;;;;;;;13.60;10.45;;;15.90;98.70;;;;;;5064592;28;20055;-44
2023/03/18 11:51:56;;;;;;;15.63;10.80;;;15.70;98.80;;;;;;5067868;28;20079;-43
2023/03/18 11:54:32;;;;;;;11.98;10.38;;;15.60;99.00;;;;;;5050552;28;20070;-45
2023/03/18 11:57:19;;;;;;;16.13;10.63;;;15.50;99.50;;;;;;5068445;28;20732;-43
2023/03/18 12:00:03;;;;;;;11.63;9.75;;;15.50;99.90;;;;;;5068596;28;20052;-44
2023/03/18 12:02:38;;;;;;;11.73;10.50;;;15.60;99.90;;;;;;5069170;28;20060;-43
2023/03/18 12:05:29;;;;;;;12.02;9.77;;;15.70;99.90;;;;;;5068561;28;20047;-43
2023/03/18 12:08:16;;;;;;;11.10;9.60;;;15.80;99.90;;;;;;5068385;28;20655;-43
2023/03/18 12:10:56;;;;;;;10.68;8.80;;;15.90;99.90;;;;;;5069208;28;20127;-43
2023/03/18 12:13:47;;;;;;;9.27;8.20;;;15.90;99.90;;;;;;5069300;28;20142;-43
2023/03/18 12:16:18;;;;;;;13.75;8.65;;;15.90;99.90;;;;;;5069153;28;20123;-44
2023/03/18 12:18:51;;;;;;;9.30;6.28;;;15.90;99.90;;;;;;5068121;28;20564;-44
2023/03/18 12:21:43;;;;;;;8.88;6.60;;;15.80;99.80;;;;;;5068575;28;20123;-43
2023/03/18 12:24:24;;;;;;;;;;;15.80;99.90;;;;;;5067454;28;20037;-43
2023/03/18 12:26:53;;;;;;;8.38;5.85;;;15.80;99.20;;;;;;5068215;28;19920;-42
2023/03/18 12:29:31;;;;;;;8.18;6.28;;;15.70;99.90;;;;;;5068563;28;20051;-43
2023/03/18 12:32:26;;;;;;;6.78;5.30;;;15.70;99.90;;;;;;5068434;28;20372;-45
2023/03/18 12:35:08;;;;;;;5.68;3.70;;;15.70;99.60;;;;;;5068385;28;20051;-44
2023/03/18 12:38:01;;;;;;;5.70;4.10;;;15.70;99.50;;;;;;5068052;28;20076;-44
2023/03/18 12:40:36;;;;;;;5.88;3.15;;;15.70;99.50;;;;;;5067242;28;20739;-44
2023/03/18 12:43:02;;;;;;;4.03;3.40;;;15.70;99.30;;;;;;5068143;28;20086;-44
2023/03/18 12:45:38;;;;;;;6.78;4.15;;;15.80;99.10;;;;;;5068510;28;20044;-43
2023/03/18 12:48:11;;;;;;;5.10;3.47;;;15.80;99.00;;;;;;5068265;28;20048;-44